Broughton, Illinois
Current Conditions -  °F | °C
As of 7:55 PM on Monday 24 Nov 2014 (Local Time) from KHSB Reporting Station
Haze Haze  
Wind Chill: 41°   Ceiling: 8000
Heat Index: 41°   Visibility: 4mi
Dew Point: 35°   Wind: 0mph
Humidity: 78%   Direction: NA
Pressure: 29.96"   Gusts: NA
Location:  37.93°N, 88.46°W
Report Text: KHSB 250155Z AUTO 00000KT 4SM HZ OVC080 05/02 A2996 RMK AO2 T00510015
Loading
Personal Weather Stations






























Interactive Weather Map New forecast layout! Learn more

10-Day Weather Forecast

Advertisements
Track Severe Weather on mobile